Current | Forecast
Updated: 9:30 PM JST on August 18, 2017
Observed at New Tokyo, Japan
Temperature 77°F
Humidity 94%
Dew Point 75°F
Wind ESE at 4 mph
Pressure 29.83 in (Steady)
Conditions Mostly Cloudy
Visibility 5.0 miles
UV 0 out of 16
Clouds (FEW) : 200 ft
Scattered Clouds (SCT) : 5000 ft
Mostly Cloudy (BKN) : 13000 ft
Yesterday's Maximum 82°F
Yesterday's Minimum 72°F approx.
Yesterday's Cooling Degree Days 12 approx.
Sunrise5:00 AM JST
Sunset6:25 PM JST
Moon Rise12:56 AM JST
Moon Set3:26 PM JST
Moon PhaseMoon Phase
Waning Crescent
Raw METARMETAR RJAA 181230Z 12003KT 070V140 8000 FEW002 SCT050 BKN130 25/24 Q1010 NOSIG RMK 1ST002 4SC050 5AC130 A2985


Monday
. High: 75° F.
Tuesday
. High: 75° F.
Wednesday
. High: 66° F.
Thursday
. High: 71° F.
Friday
. High: 73° F.
Saturday
. High: 77° F.
Sunday
. High: 73° F.
Monday
. High: 71° F.

Units: English | Metric

Find the Weather for any City, State or Zipcode, or Country:

U.S. State List | Severe Weather | Tropical Storms | Ski Conditions
United States | Canada | Central America | South America | Asia | Europe | Australia | Africa | Islands

Weather Underground

© Copyright 2017
The Weather Company, LLC